sensor_id;sensor_type;location;lat;lon;timestamp;P1;durP1;ratioP1;P2;durP2;ratioP2
12986;SDS011;58897;51.960;5.582;2022-12-07T00:01:22;6.43;;;3.60;;
12986;SDS011;58897;51.960;5.582;2022-12-07T00:03:54;5.80;;;3.23;;
12986;SDS011;58897;51.960;5.582;2022-12-07T00:06:27;7.00;;;3.37;;
12986;SDS011;58897;51.960;5.582;2022-12-07T00:08:57;4.93;;;3.33;;
12986;SDS011;58897;51.960;5.582;2022-12-07T00:11:24;6.13;;;3.40;;
12986;SDS011;58897;51.960;5.582;2022-12-07T00:13:56;5.67;;;3.40;;
12986;SDS011;58897;51.960;5.582;2022-12-07T00:16:29;3.60;;;3.30;;
12986;SDS011;58897;51.960;5.582;2022-12-07T00:18:58;6.50;;;3.20;;
12986;SDS011;58897;51.960;5.582;2022-12-07T00:21:26;4.23;;;3.30;;
12986;SDS011;58897;51.960;5.582;2022-12-07T00:23:55;4.27;;;3.50;;
12986;SDS011;58897;51.960;5.582;2022-12-07T00:28:52;6.77;;;3.47;;
12986;SDS011;58897;51.960;5.582;2022-12-07T00:31:21;7.67;;;3.70;;
12986;SDS011;58897;51.960;5.582;2022-12-07T00:33:50;5.53;;;4.00;;
12986;SDS011;58897;51.960;5.582;2022-12-07T00:36:20;3.93;;;3.23;;
12986;SDS011;58897;51.960;5.582;2022-12-07T00:38:52;3.77;;;3.37;;
12986;SDS011;58897;51.960;5.582;2022-12-07T00:41:26;6.37;;;3.67;;
12986;SDS011;58897;51.960;5.582;2022-12-07T00:43:54;5.73;;;3.30;;
12986;SDS011;58897;51.960;5.582;2022-12-07T00:46:24;4.60;;;3.40;;
12986;SDS011;58897;51.960;5.582;2022-12-07T00:48:52;4.13;;;3.30;;
12986;SDS011;58897;51.960;5.582;2022-12-07T00:51:23;7.17;;;3.63;;
12986;SDS011;58897;51.960;5.582;2022-12-07T00:53:51;6.57;;;3.33;;
12986;SDS011;58897;51.960;5.582;2022-12-07T00:56:22;7.77;;;3.90;;
12986;SDS011;58897;51.960;5.582;2022-12-07T00:58:54;6.40;;;3.70;;
12986;SDS011;58897;51.960;5.582;2022-12-07T01:01:22;7.43;;;3.60;;
12986;SDS011;58897;51.960;5.582;2022-12-07T01:03:51;4.30;;;3.20;;
12986;SDS011;58897;51.960;5.582;2022-12-07T01:06:18;9.23;;;3.87;;
12986;SDS011;58897;51.960;5.582;2022-12-07T01:08:46;3.73;;;2.57;;
12986;SDS011;58897;51.960;5.582;2022-12-07T01:11:14;10.23;;;3.67;;
12986;SDS011;58897;51.960;5.582;2022-12-07T01:13:43;3.07;;;2.77;;
12986;SDS011;58897;51.960;5.582;2022-12-07T01:16:11;7.33;;;3.40;;
12986;SDS011;58897;51.960;5.582;2022-12-07T01:18:40;4.50;;;3.37;;
12986;SDS011;58897;51.960;5.582;2022-12-07T01:21:09;7.67;;;3.70;;
12986;SDS011;58897;51.960;5.582;2022-12-07T01:23:47;5.03;;;3.20;;
12986;SDS011;58897;51.960;5.582;2022-12-07T01:26:16;15.43;;;4.63;;
12986;SDS011;58897;51.960;5.582;2022-12-07T01:28:48;5.33;;;2.97;;
12986;SDS011;58897;51.960;5.582;2022-12-07T01:31:20;9.93;;;4.10;;
12986;SDS011;58897;51.960;5.582;2022-12-07T01:33:50;4.70;;;3.03;;
12986;SDS011;58897;51.960;5.582;2022-12-07T01:36:23;9.23;;;4.07;;
12986;SDS011;58897;51.960;5.582;2022-12-07T01:38:54;4.23;;;3.17;;
12986;SDS011;58897;51.960;5.582;2022-12-07T01:41:24;5.80;;;3.10;;
12986;SDS011;58897;51.960;5.582;2022-12-07T01:46:52;3.90;;;3.03;;
12986;SDS011;58897;51.960;5.582;2022-12-07T01:49:31;6.40;;;3.13;;
12986;SDS011;58897;51.960;5.582;2022-12-07T01:52:01;4.97;;;3.40;;
12986;SDS011;58897;51.960;5.582;2022-12-07T01:54:37;4.50;;;2.83;;
12986;SDS011;58897;51.960;5.582;2022-12-07T01:57:04;10.00;;;3.20;;
12986;SDS011;58897;51.960;5.582;2022-12-07T01:59:34;5.73;;;3.30;;
12986;SDS011;58897;51.960;5.582;2022-12-07T02:02:04;5.37;;;2.83;;
12986;SDS011;58897;51.960;5.582;2022-12-07T02:04:36;5.63;;;2.93;;
12986;SDS011;58897;51.960;5.582;2022-12-07T02:07:03;8.23;;;2.97;;
12986;SDS011;58897;51.960;5.582;2022-12-07T02:09:31;5.73;;;2.87;;
12986;SDS011;58897;51.960;5.582;2022-12-07T02:11:59;6.47;;;3.10;;
12986;SDS011;58897;51.960;5.582;2022-12-07T02:14:26;3.30;;;2.63;;
12986;SDS011;58897;51.960;5.582;2022-12-07T02:17:07;4.90;;;3.63;;
12986;SDS011;58897;51.960;5.582;2022-12-07T02:28:09;5.30;;;3.30;;
12986;SDS011;58897;51.960;5.582;2022-12-07T02:30:48;3.40;;;2.53;;
12986;SDS011;58897;51.960;5.582;2022-12-07T02:33:43;5.23;;;2.90;;
12986;SDS011;58897;51.960;5.582;2022-12-07T02:36:21;2.87;;;2.30;;
12986;SDS011;58897;51.960;5.582;2022-12-07T02:38:59;3.33;;;2.53;;
12986;SDS011;58897;51.960;5.582;2022-12-07T02:41:36;3.77;;;2.40;;
12986;SDS011;58897;51.960;5.582;2022-12-07T02:44:09;3.73;;;2.40;;
12986;SDS011;58897;51.960;5.582;2022-12-07T02:46:44;4.13;;;2.47;;
12986;SDS011;58897;51.960;5.582;2022-12-07T02:49:19;7.80;;;3.00;;
12986;SDS011;58897;51.960;5.582;2022-12-07T02:51:49;4.87;;;2.27;;
12986;SDS011;58897;51.960;5.582;2022-12-07T02:54:19;4.10;;;2.77;;
12986;SDS011;58897;51.960;5.582;2022-12-07T03:02:41;7.50;;;2.70;;
12986;SDS011;58897;51.960;5.582;2022-12-07T03:05:33;6.60;;;2.73;;
12986;SDS011;58897;51.960;5.582;2022-12-07T03:11:09;5.40;;;2.60;;
12986;SDS011;58897;51.960;5.582;2022-12-07T03:16:41;7.53;;;2.67;;
12986;SDS011;58897;51.960;5.582;2022-12-07T03:19:17;7.17;;;2.83;;
12986;SDS011;58897;51.960;5.582;2022-12-07T03:21:47;3.53;;;2.60;;
12986;SDS011;58897;51.960;5.582;2022-12-07T03:24:20;16.00;;;3.63;;
12986;SDS011;58897;51.960;5.582;2022-12-07T03:26:51;5.40;;;2.30;;
12986;SDS011;58897;51.960;5.582;2022-12-07T03:29:29;5.83;;;2.37;;
12986;SDS011;58897;51.960;5.582;2022-12-07T03:32:12;3.00;;;2.20;;
12986;SDS011;58897;51.960;5.582;2022-12-07T03:34:46;2.43;;;2.20;;
12986;SDS011;58897;51.960;5.582;2022-12-07T03:37:32;5.53;;;2.60;;
12986;SDS011;58897;51.960;5.582;2022-12-07T03:40:04;3.03;;;2.43;;
12986;SDS011;58897;51.960;5.582;2022-12-07T03:42:33;4.50;;;2.90;;
12986;SDS011;58897;51.960;5.582;2022-12-07T03:45:01;7.90;;;3.00;;
12986;SDS011;58897;51.960;5.582;2022-12-07T03:47:35;2.47;;;2.27;;
12986;SDS011;58897;51.960;5.582;2022-12-07T03:53:18;3.90;;;2.53;;
12986;SDS011;58897;51.960;5.582;2022-12-07T03:55:51;8.70;;;2.83;;
12986;SDS011;58897;51.960;5.582;2022-12-07T03:58:21;3.03;;;2.17;;
12986;SDS011;58897;51.960;5.582;2022-12-07T04:00:48;3.57;;;2.60;;
12986;SDS011;58897;51.960;5.582;2022-12-07T04:03:16;5.37;;;2.87;;
12986;SDS011;58897;51.960;5.582;2022-12-07T04:05:45;4.43;;;2.50;;
12986;SDS011;58897;51.960;5.582;2022-12-07T04:08:12;5.03;;;2.60;;
12986;SDS011;58897;51.960;5.582;2022-12-07T04:10:39;2.97;;;2.27;;
12986;SDS011;58897;51.960;5.582;2022-12-07T04:13:06;4.83;;;2.03;;
12986;SDS011;58897;51.960;5.582;2022-12-07T04:15:33;4.53;;;2.43;;
12986;SDS011;58897;51.960;5.582;2022-12-07T04:18:00;6.47;;;2.13;;
12986;SDS011;58897;51.960;5.582;2022-12-07T04:20:27;6.80;;;1.97;;
12986;SDS011;58897;51.960;5.582;2022-12-07T04:22:54;3.80;;;2.00;;
12986;SDS011;58897;51.960;5.582;2022-12-07T04:25:20;3.13;;;1.87;;
12986;SDS011;58897;51.960;5.582;2022-12-07T04:27:47;6.50;;;2.27;;
12986;SDS011;58897;51.960;5.582;2022-12-07T04:30:16;5.23;;;1.87;;
12986;SDS011;58897;51.960;5.582;2022-12-07T04:32:43;1.80;;;1.70;;
12986;SDS011;58897;51.960;5.582;2022-12-07T04:35:10;6.67;;;1.83;;
12986;SDS011;58897;51.960;5.582;2022-12-07T04:37:37;4.33;;;1.90;;
12986;SDS011;58897;51.960;5.582;2022-12-07T04:40:07;4.83;;;2.00;;
12986;SDS011;58897;51.960;5.582;2022-12-07T04:42:37;2.73;;;2.10;;
12986;SDS011;58897;51.960;5.582;2022-12-07T04:45:04;8.77;;;2.13;;
12986;SDS011;58897;51.960;5.582;2022-12-07T04:47:32;3.27;;;1.90;;
12986;SDS011;58897;51.960;5.582;2022-12-07T04:49:59;4.30;;;1.90;;
12986;SDS011;58897;51.960;5.582;2022-12-07T04:52:27;4.00;;;2.13;;
12986;SDS011;58897;51.960;5.582;2022-12-07T04:54:53;3.23;;;2.00;;
12986;SDS011;58897;51.960;5.582;2022-12-07T04:57:20;2.93;;;2.53;;
12986;SDS011;58897;51.960;5.582;2022-12-07T04:59:47;7.00;;;2.33;;
12986;SDS011;58897;51.960;5.582;2022-12-07T05:02:17;10.40;;;2.80;;
12986;SDS011;58897;51.960;5.582;2022-12-07T05:04:46;6.77;;;2.13;;
12986;SDS011;58897;51.960;5.582;2022-12-07T05:07:13;8.77;;;2.67;;
12986;SDS011;58897;51.960;5.582;2022-12-07T05:09:40;3.47;;;1.73;;
12986;SDS011;58897;51.960;5.582;2022-12-07T05:12:07;15.33;;;3.20;;
12986;SDS011;58897;51.960;5.582;2022-12-07T05:14:36;4.50;;;2.00;;
12986;SDS011;58897;51.960;5.582;2022-12-07T05:17:03;6.87;;;2.17;;
12986;SDS011;58897;51.960;5.582;2022-12-07T05:19:30;3.63;;;1.67;;
12986;SDS011;58897;51.960;5.582;2022-12-07T05:21:57;3.83;;;1.53;;
12986;SDS011;58897;51.960;5.582;2022-12-07T05:24:27;2.17;;;1.23;;
12986;SDS011;58897;51.960;5.582;2022-12-07T05:26:54;4.23;;;1.80;;
12986;SDS011;58897;51.960;5.582;2022-12-07T05:29:26;3.30;;;1.57;;
12986;SDS011;58897;51.960;5.582;2022-12-07T05:31:53;1.87;;;1.43;;
12986;SDS011;58897;51.960;5.582;2022-12-07T05:34:23;7.00;;;1.37;;
12986;SDS011;58897;51.960;5.582;2022-12-07T05:36:53;3.03;;;1.43;;
12986;SDS011;58897;51.960;5.582;2022-12-07T05:39:23;1.33;;;1.10;;
12986;SDS011;58897;51.960;5.582;2022-12-07T05:41:51;4.90;;;1.73;;
12986;SDS011;58897;51.960;5.582;2022-12-07T05:44:36;2.33;;;1.50;;
12986;SDS011;58897;51.960;5.582;2022-12-07T05:47:11;16.03;;;2.40;;
12986;SDS011;58897;51.960;5.582;2022-12-07T05:49:38;2.73;;;1.13;;
12986;SDS011;58897;51.960;5.582;2022-12-07T05:52:09;6.37;;;1.60;;
12986;SDS011;58897;51.960;5.582;2022-12-07T05:54:36;3.80;;;1.20;;
12986;SDS011;58897;51.960;5.582;2022-12-07T05:57:11;10.83;;;2.10;;
12986;SDS011;58897;51.960;5.582;2022-12-07T05:59:41;2.47;;;1.00;;
12986;SDS011;58897;51.960;5.582;2022-12-07T06:02:12;15.43;;;2.43;;
12986;SDS011;58897;51.960;5.582;2022-12-07T06:04:42;2.53;;;1.10;;
12986;SDS011;58897;51.960;5.582;2022-12-07T06:07:14;7.93;;;1.53;;
12986;SDS011;58897;51.960;5.582;2022-12-07T06:09:42;2.73;;;1.10;;
12986;SDS011;58897;51.960;5.582;2022-12-07T06:12:10;4.97;;;1.50;;
12986;SDS011;58897;51.960;5.582;2022-12-07T06:14:56;3.07;;;1.07;;
12986;SDS011;58897;51.960;5.582;2022-12-07T06:17:24;3.57;;;1.20;;
12986;SDS011;58897;51.960;5.582;2022-12-07T06:19:51;3.20;;;1.10;;
12986;SDS011;58897;51.960;5.582;2022-12-07T06:22:18;4.17;;;1.30;;
12986;SDS011;58897;51.960;5.582;2022-12-07T06:24:44;3.63;;;1.30;;
12986;SDS011;58897;51.960;5.582;2022-12-07T06:27:14;7.53;;;1.90;;
12986;SDS011;58897;51.960;5.582;2022-12-07T06:29:42;3.83;;;1.13;;
12986;SDS011;58897;51.960;5.582;2022-12-07T06:32:10;5.00;;;1.30;;
12986;SDS011;58897;51.960;5.582;2022-12-07T06:34:41;3.73;;;1.63;;
12986;SDS011;58897;51.960;5.582;2022-12-07T06:37:08;8.67;;;1.97;;
12986;SDS011;58897;51.960;5.582;2022-12-07T06:39:35;5.27;;;1.20;;
12986;SDS011;58897;51.960;5.582;2022-12-07T06:42:02;2.90;;;1.23;;
12986;SDS011;58897;51.960;5.582;2022-12-07T06:44:28;4.40;;;1.57;;
12986;SDS011;58897;51.960;5.582;2022-12-07T06:46:55;4.80;;;1.60;;
12986;SDS011;58897;51.960;5.582;2022-12-07T06:49:42;3.47;;;0.97;;
12986;SDS011;58897;51.960;5.582;2022-12-07T06:52:09;26.80;;;3.93;;
12986;SDS011;58897;51.960;5.582;2022-12-07T06:54:36;5.10;;;1.50;;
12986;SDS011;58897;51.960;5.582;2022-12-07T06:57:03;5.10;;;1.53;;
12986;SDS011;58897;51.960;5.582;2022-12-07T06:59:30;3.93;;;1.40;;
12986;SDS011;58897;51.960;5.582;2022-12-07T07:01:56;3.20;;;1.53;;
12986;SDS011;58897;51.960;5.582;2022-12-07T07:04:26;2.53;;;1.40;;
12986;SDS011;58897;51.960;5.582;2022-12-07T07:06:55;2.53;;;1.00;;
12986;SDS011;58897;51.960;5.582;2022-12-07T07:09:25;2.80;;;1.00;;
12986;SDS011;58897;51.960;5.582;2022-12-07T07:11:52;3.03;;;1.20;;
12986;SDS011;58897;51.960;5.582;2022-12-07T07:14:19;5.83;;;1.80;;
12986;SDS011;58897;51.960;5.582;2022-12-07T07:16:47;5.67;;;1.40;;
12986;SDS011;58897;51.960;5.582;2022-12-07T07:19:14;5.70;;;1.53;;
12986;SDS011;58897;51.960;5.582;2022-12-07T07:21:41;6.20;;;1.73;;
12986;SDS011;58897;51.960;5.582;2022-12-07T07:26:55;2.43;;;0.97;;
12986;SDS011;58897;51.960;5.582;2022-12-07T07:29:21;3.33;;;1.17;;
12986;SDS011;58897;51.960;5.582;2022-12-07T07:31:48;2.00;;;1.10;;
12986;SDS011;58897;51.960;5.582;2022-12-07T07:34:18;5.27;;;1.43;;
12986;SDS011;58897;51.960;5.582;2022-12-07T07:36:45;4.80;;;1.20;;
12986;SDS011;58897;51.960;5.582;2022-12-07T07:39:12;6.30;;;1.30;;
12986;SDS011;58897;51.960;5.582;2022-12-07T07:41:41;2.50;;;1.23;;
12986;SDS011;58897;51.960;5.582;2022-12-07T07:44:17;5.17;;;1.40;;
12986;SDS011;58897;51.960;5.582;2022-12-07T07:46:44;3.07;;;1.43;;
12986;SDS011;58897;51.960;5.582;2022-12-07T07:49:10;22.53;;;3.17;;
12986;SDS011;58897;51.960;5.582;2022-12-07T07:51:37;2.27;;;1.40;;
12986;SDS011;58897;51.960;5.582;2022-12-07T07:54:04;4.00;;;1.40;;
12986;SDS011;58897;51.960;5.582;2022-12-07T07:56:31;2.50;;;1.37;;
12986;SDS011;58897;51.960;5.582;2022-12-07T07:58:58;3.30;;;1.33;;
12986;SDS011;58897;51.960;5.582;2022-12-07T08:01:25;4.87;;;1.33;;
12986;SDS011;58897;51.960;5.582;2022-12-07T08:03:52;7.77;;;1.60;;
12986;SDS011;58897;51.960;5.582;2022-12-07T08:06:26;4.93;;;1.63;;
12986;SDS011;58897;51.960;5.582;2022-12-07T08:12:11;5.93;;;2.30;;
12986;SDS011;58897;51.960;5.582;2022-12-07T08:14:38;4.20;;;2.10;;
12986;SDS011;58897;51.960;5.582;2022-12-07T08:17:05;8.07;;;2.40;;
12986;SDS011;58897;51.960;5.582;2022-12-07T08:19:32;4.70;;;2.00;;
12986;SDS011;58897;51.960;5.582;2022-12-07T08:22:13;9.40;;;2.43;;
12986;SDS011;58897;51.960;5.582;2022-12-07T08:24:40;4.33;;;1.80;;
12986;SDS011;58897;51.960;5.582;2022-12-07T08:27:07;8.40;;;2.53;;
12986;SDS011;58897;51.960;5.582;2022-12-07T08:29:34;5.53;;;1.93;;
12986;SDS011;58897;51.960;5.582;2022-12-07T08:32:04;6.93;;;2.63;;
12986;SDS011;58897;51.960;5.582;2022-12-07T08:34:35;4.30;;;2.33;;
12986;SDS011;58897;51.960;5.582;2022-12-07T08:37:03;9.17;;;2.50;;
12986;SDS011;58897;51.960;5.582;2022-12-07T08:39:30;5.43;;;2.03;;
12986;SDS011;58897;51.960;5.582;2022-12-07T08:42:02;4.70;;;1.73;;
12986;SDS011;58897;51.960;5.582;2022-12-07T08:44:29;4.97;;;2.40;;
12986;SDS011;58897;51.960;5.582;2022-12-07T08:46:56;7.00;;;2.40;;
12986;SDS011;58897;51.960;5.582;2022-12-07T08:49:33;6.83;;;2.30;;
12986;SDS011;58897;51.960;5.582;2022-12-07T08:52:05;8.63;;;2.30;;
12986;SDS011;58897;51.960;5.582;2022-12-07T08:54:36;5.00;;;1.77;;
12986;SDS011;58897;51.960;5.582;2022-12-07T08:57:13;6.63;;;2.57;;
12986;SDS011;58897;51.960;5.582;2022-12-07T08:59:40;5.87;;;2.70;;
12986;SDS011;58897;51.960;5.582;2022-12-07T09:21:06;5.53;;;2.07;;
12986;SDS011;58897;51.960;5.582;2022-12-07T10:43:32;3.67;;;1.37;;
12986;SDS011;58897;51.960;5.582;2022-12-07T10:46:05;5.63;;;1.50;;
12986;SDS011;58897;51.960;5.582;2022-12-07T10:49:09;2.63;;;1.10;;
12986;SDS011;58897;51.960;5.582;2022-12-07T12:25:45;2.83;;;1.27;;
12986;SDS011;58897;51.960;5.582;2022-12-07T12:31:31;6.03;;;1.67;;
12986;SDS011;58897;51.960;5.582;2022-12-07T12:34:58;3.27;;;1.10;;
12986;SDS011;58897;51.960;5.582;2022-12-07T12:43:00;3.60;;;0.90;;
12986;SDS011;58897;51.960;5.582;2022-12-07T12:50:26;5.60;;;1.20;;
12986;SDS011;58897;51.960;5.582;2022-12-07T12:53:20;2.50;;;1.07;;
12986;SDS011;58897;51.960;5.582;2022-12-07T12:58:31;2.07;;;0.77;;
12986;SDS011;58897;51.960;5.582;2022-12-07T13:04:17;3.73;;;1.20;;
12986;SDS011;58897;51.960;5.582;2022-12-07T13:06:49;5.00;;;1.40;;
12986;SDS011;58897;51.960;5.582;2022-12-07T13:09:23;3.70;;;1.10;;
12986;SDS011;58897;51.960;5.582;2022-12-07T13:11:56;5.13;;;1.07;;
12986;SDS011;58897;51.960;5.582;2022-12-07T13:14:40;2.97;;;1.17;;
12986;SDS011;58897;51.960;5.582;2022-12-07T13:17:11;3.63;;;1.17;;
12986;SDS011;58897;51.960;5.582;2022-12-07T13:19:59;3.27;;;1.60;;
12986;SDS011;58897;51.960;5.582;2022-12-07T13:24:57;6.67;;;2.50;;
12986;SDS011;58897;51.960;5.582;2022-12-07T13:27:31;5.07;;;1.97;;
12986;SDS011;58897;51.960;5.582;2022-12-07T13:29:58;5.47;;;2.20;;
12986;SDS011;58897;51.960;5.582;2022-12-07T13:32:26;4.43;;;2.30;;
12986;SDS011;58897;51.960;5.582;2022-12-07T13:34:54;6.17;;;2.00;;
12986;SDS011;58897;51.960;5.582;2022-12-07T13:37:30;5.03;;;1.40;;
12986;SDS011;58897;51.960;5.582;2022-12-07T13:40:20;2.80;;;1.17;;
12986;SDS011;58897;51.960;5.582;2022-12-07T13:42:48;3.43;;;1.60;;
12986;SDS011;58897;51.960;5.582;2022-12-07T13:45:33;2.20;;;1.17;;
12986;SDS011;58897;51.960;5.582;2022-12-07T14:10:56;6.17;;;1.30;;
12986;SDS011;58897;51.960;5.582;2022-12-07T14:18:29;4.10;;;1.40;;
12986;SDS011;58897;51.960;5.582;2022-12-07T14:21:03;7.70;;;1.60;;
12986;SDS011;58897;51.960;5.582;2022-12-07T14:23:37;7.77;;;2.03;;
12986;SDS011;58897;51.960;5.582;2022-12-07T14:26:07;3.03;;;1.80;;
12986;SDS011;58897;51.960;5.582;2022-12-07T14:29:17;4.53;;;2.10;;
12986;SDS011;58897;51.960;5.582;2022-12-07T14:31:57;4.57;;;1.80;;
12986;SDS011;58897;51.960;5.582;2022-12-07T14:34:28;5.67;;;2.30;;
12986;SDS011;58897;51.960;5.582;2022-12-07T14:36:54;4.47;;;2.60;;
12986;SDS011;58897;51.960;5.582;2022-12-07T14:39:20;7.30;;;3.50;;
12986;SDS011;58897;51.960;5.582;2022-12-07T14:41:47;6.93;;;3.07;;
12986;SDS011;58897;51.960;5.582;2022-12-07T14:44:19;9.37;;;2.73;;
12986;SDS011;58897;51.960;5.582;2022-12-07T14:46:52;5.20;;;2.40;;
12986;SDS011;58897;51.960;5.582;2022-12-07T14:49:39;4.77;;;2.37;;
12986;SDS011;58897;51.960;5.582;2022-12-07T14:52:06;8.40;;;2.83;;
12986;SDS011;58897;51.960;5.582;2022-12-07T14:55:28;6.60;;;2.20;;
12986;SDS011;58897;51.960;5.582;2022-12-07T14:57:57;2.93;;;1.50;;
12986;SDS011;58897;51.960;5.582;2022-12-07T15:00:26;2.80;;;1.50;;
12986;SDS011;58897;51.960;5.582;2022-12-07T15:02:53;5.60;;;1.60;;
12986;SDS011;58897;51.960;5.582;2022-12-07T15:05:20;2.63;;;1.10;;
12986;SDS011;58897;51.960;5.582;2022-12-07T15:07:48;2.73;;;1.70;;
12986;SDS011;58897;51.960;5.582;2022-12-07T15:14:07;5.47;;;2.70;;
12986;SDS011;58897;51.960;5.582;2022-12-07T15:17:20;3.97;;;1.67;;
12986;SDS011;58897;51.960;5.582;2022-12-07T15:19:57;2.57;;;1.33;;
12986;SDS011;58897;51.960;5.582;2022-12-07T15:22:23;2.53;;;1.43;;
12986;SDS011;58897;51.960;5.582;2022-12-07T15:24:50;3.40;;;1.40;;
12986;SDS011;58897;51.960;5.582;2022-12-07T15:27:16;2.17;;;1.53;;
12986;SDS011;58897;51.960;5.582;2022-12-07T15:29:43;2.53;;;2.07;;
12986;SDS011;58897;51.960;5.582;2022-12-07T15:32:09;4.40;;;2.10;;
12986;SDS011;58897;51.960;5.582;2022-12-07T15:34:36;3.20;;;1.20;;
12986;SDS011;58897;51.960;5.582;2022-12-07T15:37:06;3.83;;;1.33;;
12986;SDS011;58897;51.960;5.582;2022-12-07T15:39:33;3.83;;;1.00;;
12986;SDS011;58897;51.960;5.582;2022-12-07T15:42:00;5.97;;;1.43;;
12986;SDS011;58897;51.960;5.582;2022-12-07T15:44:26;2.50;;;1.30;;
12986;SDS011;58897;51.960;5.582;2022-12-07T15:47:11;3.27;;;1.30;;
12986;SDS011;58897;51.960;5.582;2022-12-07T15:49:38;6.43;;;2.13;;
12986;SDS011;58897;51.960;5.582;2022-12-07T15:52:04;2.50;;;2.07;;
12986;SDS011;58897;51.960;5.582;2022-12-07T15:54:31;2.20;;;1.50;;
12986;SDS011;58897;51.960;5.582;2022-12-07T15:56:58;2.87;;;1.40;;
12986;SDS011;58897;51.960;5.582;2022-12-07T15:59:25;2.50;;;1.80;;
12986;SDS011;58897;51.960;5.582;2022-12-07T16:01:54;3.47;;;1.90;;
12986;SDS011;58897;51.960;5.582;2022-12-07T16:04:21;3.03;;;1.97;;
12986;SDS011;58897;51.960;5.582;2022-12-07T16:06:48;4.70;;;2.33;;
12986;SDS011;58897;51.960;5.582;2022-12-07T16:09:16;7.50;;;3.03;;
12986;SDS011;58897;51.960;5.582;2022-12-07T16:11:42;5.83;;;3.40;;
12986;SDS011;58897;51.960;5.582;2022-12-07T16:14:09;6.83;;;3.47;;
12986;SDS011;58897;51.960;5.582;2022-12-07T16:16:35;10.00;;;4.13;;
12986;SDS011;58897;51.960;5.582;2022-12-07T16:19:02;5.50;;;3.30;;
12986;SDS011;58897;51.960;5.582;2022-12-07T16:21:29;8.33;;;3.80;;
12986;SDS011;58897;51.960;5.582;2022-12-07T16:23:57;6.90;;;3.83;;
12986;SDS011;58897;51.960;5.582;2022-12-07T16:26:24;5.97;;;3.43;;
12986;SDS011;58897;51.960;5.582;2022-12-07T16:28:51;5.83;;;2.97;;
12986;SDS011;58897;51.960;5.582;2022-12-07T16:31:20;7.17;;;3.40;;
12986;SDS011;58897;51.960;5.582;2022-12-07T16:33:48;7.27;;;3.20;;
12986;SDS011;58897;51.960;5.582;2022-12-07T16:36:17;13.60;;;5.90;;
12986;SDS011;58897;51.960;5.582;2022-12-07T16:39:04;10.13;;;4.20;;
12986;SDS011;58897;51.960;5.582;2022-12-07T16:41:31;6.60;;;3.63;;
12986;SDS011;58897;51.960;5.582;2022-12-07T16:44:04;3.33;;;2.20;;
12986;SDS011;58897;51.960;5.582;2022-12-07T16:46:33;2.57;;;2.37;;
12986;SDS011;58897;51.960;5.582;2022-12-07T16:49:02;5.43;;;3.40;;
12986;SDS011;58897;51.960;5.582;2022-12-07T16:51:29;5.33;;;3.43;;
12986;SDS011;58897;51.960;5.582;2022-12-07T16:53:56;3.93;;;3.10;;
12986;SDS011;58897;51.960;5.582;2022-12-07T16:56:22;6.70;;;4.87;;
12986;SDS011;58897;51.960;5.582;2022-12-07T16:58:49;4.30;;;3.17;;
12986;SDS011;58897;51.960;5.582;2022-12-07T17:01:16;3.40;;;2.43;;
12986;SDS011;58897;51.960;5.582;2022-12-07T17:03:45;3.47;;;1.90;;
12986;SDS011;58897;51.960;5.582;2022-12-07T17:06:13;5.27;;;2.50;;
12986;SDS011;58897;51.960;5.582;2022-12-07T17:08:42;2.73;;;2.10;;
12986;SDS011;58897;51.960;5.582;2022-12-07T17:11:09;3.30;;;1.90;;
12986;SDS011;58897;51.960;5.582;2022-12-07T17:13:40;4.30;;;2.40;;
12986;SDS011;58897;51.960;5.582;2022-12-07T17:16:25;6.13;;;2.53;;
12986;SDS011;58897;51.960;5.582;2022-12-07T17:18:52;2.20;;;1.67;;
12986;SDS011;58897;51.960;5.582;2022-12-07T17:21:19;2.90;;;2.07;;
12986;SDS011;58897;51.960;5.582;2022-12-07T17:23:46;2.80;;;1.80;;
12986;SDS011;58897;51.960;5.582;2022-12-07T17:26:16;3.77;;;1.80;;
12986;SDS011;58897;51.960;5.582;2022-12-07T17:28:44;5.83;;;3.80;;
12986;SDS011;58897;51.960;5.582;2022-12-07T17:31:13;10.00;;;5.63;;
12986;SDS011;58897;51.960;5.582;2022-12-07T17:33:41;11.63;;;5.17;;
12986;SDS011;58897;51.960;5.582;2022-12-07T17:36:11;4.47;;;3.03;;
12986;SDS011;58897;51.960;5.582;2022-12-07T17:38:44;6.27;;;3.20;;
12986;SDS011;58897;51.960;5.582;2022-12-07T17:41:11;5.03;;;3.00;;
12986;SDS011;58897;51.960;5.582;2022-12-07T17:44:00;5.73;;;3.73;;
12986;SDS011;58897;51.960;5.582;2022-12-07T17:46:31;4.37;;;3.03;;
12986;SDS011;58897;51.960;5.582;2022-12-07T17:48:58;4.73;;;3.33;;
12986;SDS011;58897;51.960;5.582;2022-12-07T17:51:25;5.13;;;3.93;;
12986;SDS011;58897;51.960;5.582;2022-12-07T17:54:10;5.03;;;3.20;;
12986;SDS011;58897;51.960;5.582;2022-12-07T17:56:37;6.17;;;3.40;;
12986;SDS011;58897;51.960;5.582;2022-12-07T17:59:05;5.20;;;3.13;;
12986;SDS011;58897;51.960;5.582;2022-12-07T18:01:32;4.60;;;2.67;;
12986;SDS011;58897;51.960;5.582;2022-12-07T18:04:00;3.87;;;2.60;;
12986;SDS011;58897;51.960;5.582;2022-12-07T18:06:27;4.33;;;2.83;;
12986;SDS011;58897;51.960;5.582;2022-12-07T18:08:54;3.30;;;2.70;;
12986;SDS011;58897;51.960;5.582;2022-12-07T18:11:20;5.67;;;2.67;;
12986;SDS011;58897;51.960;5.582;2022-12-07T18:13:47;3.63;;;3.13;;
12986;SDS011;58897;51.960;5.582;2022-12-07T18:16:15;4.87;;;2.77;;
12986;SDS011;58897;51.960;5.582;2022-12-07T18:18:45;3.33;;;2.30;;
12986;SDS011;58897;51.960;5.582;2022-12-07T18:21:19;1.60;;;1.50;;
12986;SDS011;58897;51.960;5.582;2022-12-07T18:23:49;5.03;;;2.20;;
12986;SDS011;58897;51.960;5.582;2022-12-07T18:26:19;2.50;;;2.10;;
12986;SDS011;58897;51.960;5.582;2022-12-07T18:28:46;2.97;;;2.17;;
12986;SDS011;58897;51.960;5.582;2022-12-07T18:31:13;4.23;;;1.57;;
12986;SDS011;58897;51.960;5.582;2022-12-07T18:33:41;4.27;;;1.67;;
12986;SDS011;58897;51.960;5.582;2022-12-07T18:36:10;2.03;;;1.73;;
12986;SDS011;58897;51.960;5.582;2022-12-07T18:38:37;4.90;;;1.90;;
12986;SDS011;58897;51.960;5.582;2022-12-07T18:41:08;3.27;;;2.27;;
12986;SDS011;58897;51.960;5.582;2022-12-07T18:43:37;3.83;;;2.20;;
12986;SDS011;58897;51.960;5.582;2022-12-07T18:46:10;2.53;;;2.03;;
12986;SDS011;58897;51.960;5.582;2022-12-07T18:48:37;3.10;;;1.97;;
12986;SDS011;58897;51.960;5.582;2022-12-07T18:51:04;5.03;;;2.90;;
12986;SDS011;58897;51.960;5.582;2022-12-07T18:53:33;6.37;;;3.93;;
12986;SDS011;58897;51.960;5.582;2022-12-07T18:56:10;6.37;;;3.80;;
12986;SDS011;58897;51.960;5.582;2022-12-07T18:58:43;6.33;;;4.33;;
12986;SDS011;58897;51.960;5.582;2022-12-07T19:01:33;7.40;;;4.60;;
12986;SDS011;58897;51.960;5.582;2022-12-07T19:04:00;5.87;;;3.73;;
12986;SDS011;58897;51.960;5.582;2022-12-07T19:06:26;5.40;;;3.57;;
12986;SDS011;58897;51.960;5.582;2022-12-07T19:08:53;4.70;;;3.10;;
12986;SDS011;58897;51.960;5.582;2022-12-07T19:11:22;6.40;;;3.20;;
12986;SDS011;58897;51.960;5.582;2022-12-07T19:14:13;6.90;;;4.27;;
12986;SDS011;58897;51.960;5.582;2022-12-07T19:16:43;5.93;;;3.60;;
12986;SDS011;58897;51.960;5.582;2022-12-07T19:19:10;3.17;;;2.87;;
12986;SDS011;58897;51.960;5.582;2022-12-07T19:21:37;4.03;;;3.17;;
12986;SDS011;58897;51.960;5.582;2022-12-07T19:24:04;6.17;;;3.50;;
12986;SDS011;58897;51.960;5.582;2022-12-07T19:26:32;4.10;;;2.70;;
12986;SDS011;58897;51.960;5.582;2022-12-07T19:28:58;5.80;;;3.10;;
12986;SDS011;58897;51.960;5.582;2022-12-07T19:31:25;6.20;;;3.77;;
12986;SDS011;58897;51.960;5.582;2022-12-07T19:33:52;4.47;;;3.13;;
12986;SDS011;58897;51.960;5.582;2022-12-07T19:36:18;6.33;;;3.33;;
12986;SDS011;58897;51.960;5.582;2022-12-07T19:38:44;8.03;;;3.27;;
12986;SDS011;58897;51.960;5.582;2022-12-07T19:41:12;5.00;;;3.53;;
12986;SDS011;58897;51.960;5.582;2022-12-07T19:44:08;5.83;;;3.90;;
12986;SDS011;58897;51.960;5.582;2022-12-07T19:46:44;5.63;;;3.67;;
12986;SDS011;58897;51.960;5.582;2022-12-07T19:49:13;6.67;;;4.17;;
12986;SDS011;58897;51.960;5.582;2022-12-07T19:51:43;6.77;;;4.00;;